sensor_id;sensor_type;location;lat;lon;timestamp;P1;durP1;ratioP1;P2;durP2;ratioP2
1306;SDS011;646;48.696;9.114;2023-03-01T00:00:54;13.95;;;9.80;;
1306;SDS011;646;48.696;9.114;2023-03-01T00:03:25;16.33;;;10.75;;
1306;SDS011;646;48.696;9.114;2023-03-01T00:05:50;16.90;;;10.70;;
1306;SDS011;646;48.696;9.114;2023-03-01T00:08:16;16.40;;;9.90;;
1306;SDS011;646;48.696;9.114;2023-03-01T00:10:41;16.47;;;10.00;;
1306;SDS011;646;48.696;9.114;2023-03-01T00:13:07;14.60;;;11.40;;
1306;SDS011;646;48.696;9.114;2023-03-01T00:15:32;14.17;;;8.87;;
1306;SDS011;646;48.696;9.114;2023-03-01T00:17:59;17.70;;;10.98;;
1306;SDS011;646;48.696;9.114;2023-03-01T00:20:25;14.50;;;10.00;;
1306;SDS011;646;48.696;9.114;2023-03-01T00:22:50;14.07;;;10.27;;
1306;SDS011;646;48.696;9.114;2023-03-01T00:25:16;17.30;;;9.03;;
1306;SDS011;646;48.696;9.114;2023-03-01T00:27:41;14.97;;;10.30;;
1306;SDS011;646;48.696;9.114;2023-03-01T00:30:07;11.23;;;9.67;;
1306;SDS011;646;48.696;9.114;2023-03-01T00:32:33;10.70;;;8.80;;
1306;SDS011;646;48.696;9.114;2023-03-01T00:34:59;13.27;;;11.23;;
1306;SDS011;646;48.696;9.114;2023-03-01T00:37:24;11.50;;;9.50;;
1306;SDS011;646;48.696;9.114;2023-03-01T00:39:50;14.73;;;10.20;;
1306;SDS011;646;48.696;9.114;2023-03-01T00:42:16;12.73;;;9.27;;
1306;SDS011;646;48.696;9.114;2023-03-01T00:44:41;17.00;;;11.17;;
1306;SDS011;646;48.696;9.114;2023-03-01T00:47:07;16.97;;;11.53;;
1306;SDS011;646;48.696;9.114;2023-03-01T00:49:33;16.50;;;11.33;;
1306;SDS011;646;48.696;9.114;2023-03-01T00:51:59;15.07;;;11.10;;
1306;SDS011;646;48.696;9.114;2023-03-01T00:54:25;16.07;;;10.60;;
1306;SDS011;646;48.696;9.114;2023-03-01T00:56:50;16.20;;;11.37;;
1306;SDS011;646;48.696;9.114;2023-03-01T00:59:16;12.27;;;9.60;;
1306;SDS011;646;48.696;9.114;2023-03-01T01:01:41;17.00;;;12.60;;
1306;SDS011;646;48.696;9.114;2023-03-01T01:04:08;19.87;;;11.77;;
1306;SDS011;646;48.696;9.114;2023-03-01T01:06:36;16.70;;;12.02;;
1306;SDS011;646;48.696;9.114;2023-03-01T01:09:05;12.63;;;9.68;;
1306;SDS011;646;48.696;9.114;2023-03-01T01:11:32;14.00;;;11.15;;
1306;SDS011;646;48.696;9.114;2023-03-01T01:13:58;15.70;;;10.48;;
1306;SDS011;646;48.696;9.114;2023-03-01T01:16:24;16.07;;;11.57;;
1306;SDS011;646;48.696;9.114;2023-03-01T01:18:51;20.40;;;11.63;;
1306;SDS011;646;48.696;9.114;2023-03-01T01:21:18;15.38;;;10.43;;
1306;SDS011;646;48.696;9.114;2023-03-01T01:23:46;12.85;;;9.90;;
1306;SDS011;646;48.696;9.114;2023-03-01T01:26:17;18.05;;;11.32;;
1306;SDS011;646;48.696;9.114;2023-03-01T01:28:45;15.52;;;10.25;;
1306;SDS011;646;48.696;9.114;2023-03-01T01:31:11;17.80;;;11.60;;
1306;SDS011;646;48.696;9.114;2023-03-01T01:33:36;13.83;;;9.90;;
1306;SDS011;646;48.696;9.114;2023-03-01T01:36:02;13.53;;;10.00;;
1306;SDS011;646;48.696;9.114;2023-03-01T01:38:29;20.52;;;12.75;;
1306;SDS011;646;48.696;9.114;2023-03-01T01:40:55;16.57;;;11.60;;
1306;SDS011;646;48.696;9.114;2023-03-01T01:43:27;15.90;;;9.50;;
1306;SDS011;646;48.696;9.114;2023-03-01T01:45:56;19.60;;;12.00;;
1306;SDS011;646;48.696;9.114;2023-03-01T01:48:28;14.73;;;10.90;;
1306;SDS011;646;48.696;9.114;2023-03-01T01:51:05;21.00;;;14.00;;
1306;SDS011;646;48.696;9.114;2023-03-01T01:53:36;16.70;;;10.63;;
1306;SDS011;646;48.696;9.114;2023-03-01T01:56:03;16.27;;;11.68;;
1306;SDS011;646;48.696;9.114;2023-03-01T01:58:33;13.73;;;9.25;;
1306;SDS011;646;48.696;9.114;2023-03-01T02:00:58;14.63;;;11.00;;
1306;SDS011;646;48.696;9.114;2023-03-01T02:03:27;14.77;;;10.55;;
1306;SDS011;646;48.696;9.114;2023-03-01T02:06:04;14.32;;;10.00;;
1306;SDS011;646;48.696;9.114;2023-03-01T02:08:36;13.13;;;9.85;;
1306;SDS011;646;48.696;9.114;2023-03-01T02:11:06;17.38;;;11.38;;
1306;SDS011;646;48.696;9.114;2023-03-01T02:13:32;16.17;;;11.60;;
1306;SDS011;646;48.696;9.114;2023-03-01T02:15:59;20.02;;;11.55;;
1306;SDS011;646;48.696;9.114;2023-03-01T02:18:28;15.43;;;10.63;;
1306;SDS011;646;48.696;9.114;2023-03-01T02:23:47;17.63;;;11.73;;
1306;SDS011;646;48.696;9.114;2023-03-01T02:28:59;19.05;;;12.10;;
1306;SDS011;646;48.696;9.114;2023-03-01T02:31:25;16.00;;;11.17;;
1306;SDS011;646;48.696;9.114;2023-03-01T02:34:13;15.32;;;11.20;;
1306;SDS011;646;48.696;9.114;2023-03-01T02:36:44;14.25;;;11.73;;
1306;SDS011;646;48.696;9.114;2023-03-01T02:39:14;16.30;;;11.18;;
1306;SDS011;646;48.696;9.114;2023-03-01T02:41:44;17.77;;;11.38;;
1306;SDS011;646;48.696;9.114;2023-03-01T02:44:12;16.33;;;11.30;;
1306;SDS011;646;48.696;9.114;2023-03-01T02:46:42;17.00;;;12.90;;
1306;SDS011;646;48.696;9.114;2023-03-01T02:49:18;17.00;;;11.05;;
1306;SDS011;646;48.696;9.114;2023-03-01T02:52:06;14.95;;;11.23;;
1306;SDS011;646;48.696;9.114;2023-03-01T02:54:58;15.38;;;11.40;;
1306;SDS011;646;48.696;9.114;2023-03-01T02:57:25;17.60;;;10.32;;
1306;SDS011;646;48.696;9.114;2023-03-01T02:59:52;17.50;;;12.05;;
1306;SDS011;646;48.696;9.114;2023-03-01T03:02:21;15.98;;;11.73;;
1306;SDS011;646;48.696;9.114;2023-03-01T03:05:05;20.15;;;10.52;;
1306;SDS011;646;48.696;9.114;2023-03-01T03:07:33;20.70;;;12.65;;
1306;SDS011;646;48.696;9.114;2023-03-01T03:10:01;17.45;;;12.13;;
1306;SDS011;646;48.696;9.114;2023-03-01T03:12:28;17.40;;;11.30;;
1306;SDS011;646;48.696;9.114;2023-03-01T03:14:53;18.33;;;12.47;;
1306;SDS011;646;48.696;9.114;2023-03-01T03:17:19;16.77;;;11.23;;
1306;SDS011;646;48.696;9.114;2023-03-01T03:19:44;17.57;;;11.60;;
1306;SDS011;646;48.696;9.114;2023-03-01T03:22:10;15.57;;;11.67;;
1306;SDS011;646;48.696;9.114;2023-03-01T03:24:37;18.77;;;12.55;;
1306;SDS011;646;48.696;9.114;2023-03-01T03:27:03;17.00;;;11.93;;
1306;SDS011;646;48.696;9.114;2023-03-01T03:29:29;16.17;;;11.25;;
1306;SDS011;646;48.696;9.114;2023-03-01T03:31:54;18.93;;;12.57;;
1306;SDS011;646;48.696;9.114;2023-03-01T03:34:20;16.80;;;11.87;;
1306;SDS011;646;48.696;9.114;2023-03-01T03:36:45;19.17;;;12.93;;
1306;SDS011;646;48.696;9.114;2023-03-01T03:39:11;15.40;;;12.23;;
1306;SDS011;646;48.696;9.114;2023-03-01T03:41:36;17.47;;;12.30;;
1306;SDS011;646;48.696;9.114;2023-03-01T03:44:02;17.90;;;11.13;;
1306;SDS011;646;48.696;9.114;2023-03-01T03:46:27;18.97;;;12.87;;
1306;SDS011;646;48.696;9.114;2023-03-01T03:48:53;15.37;;;12.17;;
1306;SDS011;646;48.696;9.114;2023-03-01T03:51:18;16.60;;;11.27;;
1306;SDS011;646;48.696;9.114;2023-03-01T03:53:44;17.57;;;12.00;;
1306;SDS011;646;48.696;9.114;2023-03-01T03:56:10;17.38;;;12.95;;
1306;SDS011;646;48.696;9.114;2023-03-01T03:58:36;16.05;;;12.18;;
1306;SDS011;646;48.696;9.114;2023-03-01T04:01:02;17.30;;;11.87;;
1306;SDS011;646;48.696;9.114;2023-03-01T04:03:28;14.15;;;11.20;;
1306;SDS011;646;48.696;9.114;2023-03-01T04:05:56;16.15;;;12.60;;
1306;SDS011;646;48.696;9.114;2023-03-01T04:08:23;17.42;;;12.45;;
1306;SDS011;646;48.696;9.114;2023-03-01T04:10:50;17.30;;;11.77;;
1306;SDS011;646;48.696;9.114;2023-03-01T04:13:19;16.50;;;13.10;;
1306;SDS011;646;48.696;9.114;2023-03-01T04:15:47;19.63;;;12.18;;
1306;SDS011;646;48.696;9.114;2023-03-01T04:18:17;17.42;;;11.23;;
1306;SDS011;646;48.696;9.114;2023-03-01T04:20:44;16.42;;;11.15;;
1306;SDS011;646;48.696;9.114;2023-03-01T04:23:14;19.53;;;11.67;;
1306;SDS011;646;48.696;9.114;2023-03-01T04:25:47;18.80;;;12.85;;
1306;SDS011;646;48.696;9.114;2023-03-01T04:28:18;16.75;;;11.57;;
1306;SDS011;646;48.696;9.114;2023-03-01T04:30:45;20.58;;;14.15;;
1306;SDS011;646;48.696;9.114;2023-03-01T04:33:11;19.90;;;13.40;;
1306;SDS011;646;48.696;9.114;2023-03-01T04:35:37;17.43;;;12.80;;
1306;SDS011;646;48.696;9.114;2023-03-01T04:38:04;17.17;;;12.15;;
1306;SDS011;646;48.696;9.114;2023-03-01T04:40:30;16.92;;;11.88;;
1306;SDS011;646;48.696;9.114;2023-03-01T04:42:56;18.20;;;12.55;;
1306;SDS011;646;48.696;9.114;2023-03-01T04:45:21;21.50;;;14.10;;
1306;SDS011;646;48.696;9.114;2023-03-01T04:47:47;19.17;;;12.60;;
1306;SDS011;646;48.696;9.114;2023-03-01T04:50:14;22.10;;;12.17;;
1306;SDS011;646;48.696;9.114;2023-03-01T04:52:41;17.15;;;12.63;;
1306;SDS011;646;48.696;9.114;2023-03-01T04:55:08;18.35;;;12.45;;
1306;SDS011;646;48.696;9.114;2023-03-01T04:57:34;18.80;;;11.75;;
1306;SDS011;646;48.696;9.114;2023-03-01T05:00:00;19.70;;;13.47;;
1306;SDS011;646;48.696;9.114;2023-03-01T05:02:25;21.07;;;13.10;;
1306;SDS011;646;48.696;9.114;2023-03-01T05:04:51;14.13;;;11.37;;
1306;SDS011;646;48.696;9.114;2023-03-01T05:07:16;16.87;;;11.90;;
1306;SDS011;646;48.696;9.114;2023-03-01T05:09:45;16.70;;;10.65;;
1306;SDS011;646;48.696;9.114;2023-03-01T05:12:11;19.48;;;12.60;;
1306;SDS011;646;48.696;9.114;2023-03-01T05:14:37;14.60;;;11.50;;
1306;SDS011;646;48.696;9.114;2023-03-01T05:17:03;19.17;;;12.52;;
1306;SDS011;646;48.696;9.114;2023-03-01T05:19:30;17.70;;;12.47;;
1306;SDS011;646;48.696;9.114;2023-03-01T05:21:56;17.98;;;13.18;;
1306;SDS011;646;48.696;9.114;2023-03-01T05:24:32;19.20;;;12.00;;
1306;SDS011;646;48.696;9.114;2023-03-01T05:26:59;18.13;;;11.90;;
1306;SDS011;646;48.696;9.114;2023-03-01T05:29:26;21.77;;;12.85;;
1306;SDS011;646;48.696;9.114;2023-03-01T05:31:53;19.50;;;13.43;;
1306;SDS011;646;48.696;9.114;2023-03-01T05:34:23;17.95;;;12.15;;
1306;SDS011;646;48.696;9.114;2023-03-01T05:36:50;17.63;;;13.02;;
1306;SDS011;646;48.696;9.114;2023-03-01T05:39:18;17.77;;;12.35;;
1306;SDS011;646;48.696;9.114;2023-03-01T05:41:48;19.52;;;12.45;;
1306;SDS011;646;48.696;9.114;2023-03-01T05:44:17;17.20;;;12.93;;
1306;SDS011;646;48.696;9.114;2023-03-01T05:46:43;18.97;;;11.30;;
1306;SDS011;646;48.696;9.114;2023-03-01T05:49:09;17.90;;;13.38;;
1306;SDS011;646;48.696;9.114;2023-03-01T05:51:35;15.90;;;11.43;;
1306;SDS011;646;48.696;9.114;2023-03-01T05:54:01;21.53;;;13.47;;
1306;SDS011;646;48.696;9.114;2023-03-01T05:56:27;15.70;;;11.90;;
1306;SDS011;646;48.696;9.114;2023-03-01T05:58:52;17.70;;;12.80;;
1306;SDS011;646;48.696;9.114;2023-03-01T06:01:18;23.17;;;13.53;;
1306;SDS011;646;48.696;9.114;2023-03-01T06:03:43;19.13;;;14.00;;
1306;SDS011;646;48.696;9.114;2023-03-01T06:06:09;16.43;;;12.20;;
1306;SDS011;646;48.696;9.114;2023-03-01T06:08:34;19.57;;;12.67;;
1306;SDS011;646;48.696;9.114;2023-03-01T06:11:00;21.23;;;13.43;;
1306;SDS011;646;48.696;9.114;2023-03-01T06:13:25;17.60;;;11.80;;
1306;SDS011;646;48.696;9.114;2023-03-01T06:15:51;17.83;;;11.90;;
1306;SDS011;646;48.696;9.114;2023-03-01T06:18:16;16.60;;;13.40;;
1306;SDS011;646;48.696;9.114;2023-03-01T06:20:42;18.37;;;13.43;;
1306;SDS011;646;48.696;9.114;2023-03-01T06:23:07;19.00;;;14.30;;
1306;SDS011;646;48.696;9.114;2023-03-01T06:25:33;24.67;;;14.10;;
1306;SDS011;646;48.696;9.114;2023-03-01T06:27:58;22.90;;;12.77;;
1306;SDS011;646;48.696;9.114;2023-03-01T06:30:24;18.97;;;13.47;;
1306;SDS011;646;48.696;9.114;2023-03-01T06:32:50;20.33;;;15.32;;
1306;SDS011;646;48.696;9.114;2023-03-01T06:35:17;22.05;;;14.55;;
1306;SDS011;646;48.696;9.114;2023-03-01T06:37:44;23.63;;;14.75;;
1306;SDS011;646;48.696;9.114;2023-03-01T06:40:11;20.05;;;13.38;;
1306;SDS011;646;48.696;9.114;2023-03-01T06:42:38;19.20;;;12.82;;
1306;SDS011;646;48.696;9.114;2023-03-01T06:45:06;20.48;;;14.52;;
1306;SDS011;646;48.696;9.114;2023-03-01T06:47:32;22.17;;;12.63;;
1306;SDS011;646;48.696;9.114;2023-03-01T06:49:59;19.73;;;12.60;;
1306;SDS011;646;48.696;9.114;2023-03-01T06:52:25;20.77;;;14.60;;
1306;SDS011;646;48.696;9.114;2023-03-01T06:54:50;19.93;;;15.00;;
1306;SDS011;646;48.696;9.114;2023-03-01T06:57:17;17.17;;;13.02;;
1306;SDS011;646;48.696;9.114;2023-03-01T06:59:42;23.53;;;14.20;;
1306;SDS011;646;48.696;9.114;2023-03-01T07:02:09;20.63;;;14.33;;
1306;SDS011;646;48.696;9.114;2023-03-01T07:04:36;17.13;;;11.52;;
1306;SDS011;646;48.696;9.114;2023-03-01T07:07:02;23.07;;;15.30;;
1306;SDS011;646;48.696;9.114;2023-03-01T07:09:28;19.80;;;14.67;;
1306;SDS011;646;48.696;9.114;2023-03-01T07:11:53;17.43;;;12.80;;
1306;SDS011;646;48.696;9.114;2023-03-01T07:14:19;24.80;;;13.83;;
1306;SDS011;646;48.696;9.114;2023-03-01T07:16:45;18.60;;;13.50;;
1306;SDS011;646;48.696;9.114;2023-03-01T07:19:10;20.50;;;13.32;;
1306;SDS011;646;48.696;9.114;2023-03-01T07:21:36;17.33;;;12.87;;
1306;SDS011;646;48.696;9.114;2023-03-01T07:24:04;20.90;;;14.88;;
1306;SDS011;646;48.696;9.114;2023-03-01T07:26:33;17.75;;;12.73;;
1306;SDS011;646;48.696;9.114;2023-03-01T07:28:59;20.23;;;13.20;;
1306;SDS011;646;48.696;9.114;2023-03-01T07:31:25;20.67;;;13.60;;
1306;SDS011;646;48.696;9.114;2023-03-01T07:33:52;25.23;;;14.10;;
1306;SDS011;646;48.696;9.114;2023-03-01T07:36:19;17.02;;;13.32;;
1306;SDS011;646;48.696;9.114;2023-03-01T07:38:44;20.10;;;14.00;;
1306;SDS011;646;48.696;9.114;2023-03-01T07:41:10;21.27;;;14.23;;
1306;SDS011;646;48.696;9.114;2023-03-01T07:43:35;21.20;;;14.87;;
1306;SDS011;646;48.696;9.114;2023-03-01T07:46:01;20.10;;;14.77;;
1306;SDS011;646;48.696;9.114;2023-03-01T07:48:27;21.25;;;14.50;;
1306;SDS011;646;48.696;9.114;2023-03-01T07:50:54;19.00;;;12.70;;
1306;SDS011;646;48.696;9.114;2023-03-01T07:53:23;20.95;;;14.35;;
1306;SDS011;646;48.696;9.114;2023-03-01T07:55:49;23.77;;;15.33;;
1306;SDS011;646;48.696;9.114;2023-03-01T07:58:14;18.17;;;13.27;;
1306;SDS011;646;48.696;9.114;2023-03-01T08:00:40;23.00;;;14.40;;
1306;SDS011;646;48.696;9.114;2023-03-01T08:03:05;18.57;;;12.77;;
1306;SDS011;646;48.696;9.114;2023-03-01T08:05:31;21.57;;;14.80;;
1306;SDS011;646;48.696;9.114;2023-03-01T08:07:57;21.23;;;14.48;;
1306;SDS011;646;48.696;9.114;2023-03-01T08:10:22;20.83;;;13.80;;
1306;SDS011;646;48.696;9.114;2023-03-01T08:12:50;19.77;;;12.97;;
1306;SDS011;646;48.696;9.114;2023-03-01T08:15:16;20.08;;;14.15;;
1306;SDS011;646;48.696;9.114;2023-03-01T08:17:43;25.63;;;14.57;;
1306;SDS011;646;48.696;9.114;2023-03-01T08:20:09;22.10;;;15.83;;
1306;SDS011;646;48.696;9.114;2023-03-01T08:22:37;19.67;;;14.95;;
1306;SDS011;646;48.696;9.114;2023-03-01T08:25:02;18.40;;;12.77;;
1306;SDS011;646;48.696;9.114;2023-03-01T08:27:28;19.98;;;14.95;;
1306;SDS011;646;48.696;9.114;2023-03-01T08:29:54;18.30;;;13.53;;
1306;SDS011;646;48.696;9.114;2023-03-01T08:32:19;18.43;;;15.00;;
1306;SDS011;646;48.696;9.114;2023-03-01T08:34:48;20.50;;;13.83;;
1306;SDS011;646;48.696;9.114;2023-03-01T08:37:13;22.80;;;14.55;;
1306;SDS011;646;48.696;9.114;2023-03-01T08:39:39;17.80;;;14.10;;
1306;SDS011;646;48.696;9.114;2023-03-01T08:42:04;21.47;;;15.80;;
1306;SDS011;646;48.696;9.114;2023-03-01T08:44:30;17.37;;;14.63;;
1306;SDS011;646;48.696;9.114;2023-03-01T08:46:55;20.43;;;15.00;;
1306;SDS011;646;48.696;9.114;2023-03-01T08:49:22;18.08;;;13.82;;
1306;SDS011;646;48.696;9.114;2023-03-01T08:51:48;21.13;;;14.85;;
1306;SDS011;646;48.696;9.114;2023-03-01T08:54:15;22.33;;;15.80;;
1306;SDS011;646;48.696;9.114;2023-03-01T08:56:43;18.23;;;14.93;;
1306;SDS011;646;48.696;9.114;2023-03-01T08:59:09;18.80;;;14.43;;
1306;SDS011;646;48.696;9.114;2023-03-01T09:01:36;20.58;;;14.95;;
1306;SDS011;646;48.696;9.114;2023-03-01T09:04:02;19.53;;;16.27;;
1306;SDS011;646;48.696;9.114;2023-03-01T09:06:29;18.77;;;14.60;;
1306;SDS011;646;48.696;9.114;2023-03-01T09:08:56;20.30;;;15.88;;
1306;SDS011;646;48.696;9.114;2023-03-01T09:11:22;18.07;;;15.30;;
1306;SDS011;646;48.696;9.114;2023-03-01T09:13:47;22.20;;;15.13;;
1306;SDS011;646;48.696;9.114;2023-03-01T09:16:14;21.73;;;15.95;;
1306;SDS011;646;48.696;9.114;2023-03-01T09:18:42;16.38;;;14.63;;
1306;SDS011;646;48.696;9.114;2023-03-01T09:21:13;21.38;;;16.23;;
1306;SDS011;646;48.696;9.114;2023-03-01T09:23:43;16.63;;;14.57;;
1306;SDS011;646;48.696;9.114;2023-03-01T09:26:15;18.58;;;15.40;;
1306;SDS011;646;48.696;9.114;2023-03-01T09:28:44;18.33;;;16.02;;
1306;SDS011;646;48.696;9.114;2023-03-01T09:31:10;21.53;;;16.13;;
1306;SDS011;646;48.696;9.114;2023-03-01T09:33:38;17.90;;;15.70;;
1306;SDS011;646;48.696;9.114;2023-03-01T09:36:05;19.63;;;16.42;;
1306;SDS011;646;48.696;9.114;2023-03-01T09:38:33;18.27;;;15.67;;
1306;SDS011;646;48.696;9.114;2023-03-01T09:40:59;18.13;;;16.27;;
1306;SDS011;646;48.696;9.114;2023-03-01T09:43:29;22.33;;;17.03;;
1306;SDS011;646;48.696;9.114;2023-03-01T09:45:55;17.90;;;15.47;;
1306;SDS011;646;48.696;9.114;2023-03-01T09:48:31;20.07;;;16.53;;
1306;SDS011;646;48.696;9.114;2023-03-01T09:51:18;19.23;;;16.47;;
1306;SDS011;646;48.696;9.114;2023-03-01T09:53:48;18.50;;;16.50;;
1306;SDS011;646;48.696;9.114;2023-03-01T09:56:21;18.37;;;15.40;;
1306;SDS011;646;48.696;9.114;2023-03-01T10:01:51;18.63;;;15.80;;
1306;SDS011;646;48.696;9.114;2023-03-01T10:04:39;16.70;;;14.97;;
1306;SDS011;646;48.696;9.114;2023-03-01T10:07:13;17.20;;;15.47;;
1306;SDS011;646;48.696;9.114;2023-03-01T10:09:50;19.40;;;16.73;;
1306;SDS011;646;48.696;9.114;2023-03-01T10:12:17;17.83;;;15.17;;
1306;SDS011;646;48.696;9.114;2023-03-01T10:17:30;23.00;;;17.83;;
1306;SDS011;646;48.696;9.114;2023-03-01T10:20:10;17.77;;;15.87;;
1306;SDS011;646;48.696;9.114;2023-03-01T10:22:41;19.57;;;16.83;;
1306;SDS011;646;48.696;9.114;2023-03-01T10:25:08;18.07;;;16.20;;
1306;SDS011;646;48.696;9.114;2023-03-01T10:27:42;18.27;;;16.17;;
1306;SDS011;646;48.696;9.114;2023-03-01T10:30:22;18.97;;;17.07;;
1306;SDS011;646;48.696;9.114;2023-03-01T10:33:00;19.40;;;17.30;;
1306;SDS011;646;48.696;9.114;2023-03-01T10:35:27;18.40;;;16.50;;
1306;SDS011;646;48.696;9.114;2023-03-01T10:40:31;19.37;;;17.47;;
1306;SDS011;646;48.696;9.114;2023-03-01T10:42:58;19.50;;;17.47;;
1306;SDS011;646;48.696;9.114;2023-03-01T10:50:48;20.87;;;16.73;;
1306;SDS011;646;48.696;9.114;2023-03-01T10:53:22;20.17;;;18.00;;
1306;SDS011;646;48.696;9.114;2023-03-01T10:55:59;19.77;;;17.67;;
1306;SDS011;646;48.696;9.114;2023-03-01T10:58:41;20.53;;;17.70;;
1306;SDS011;646;48.696;9.114;2023-03-01T11:01:25;20.17;;;18.10;;
1306;SDS011;646;48.696;9.114;2023-03-01T11:06:30;18.73;;;16.80;;
1306;SDS011;646;48.696;9.114;2023-03-01T11:08:56;18.93;;;17.03;;
1306;SDS011;646;48.696;9.114;2023-03-01T11:11:37;17.60;;;15.80;;
1306;SDS011;646;48.696;9.114;2023-03-01T11:14:07;18.20;;;16.40;;
1306;SDS011;646;48.696;9.114;2023-03-01T11:16:44;19.00;;;17.00;;
1306;SDS011;646;48.696;9.114;2023-03-01T11:24:15;19.60;;;17.50;;
1306;SDS011;646;48.696;9.114;2023-03-01T11:26:44;18.37;;;16.67;;
1306;SDS011;646;48.696;9.114;2023-03-01T11:29:17;18.43;;;16.63;;
1306;SDS011;646;48.696;9.114;2023-03-01T11:31:51;18.03;;;16.33;;
1306;SDS011;646;48.696;9.114;2023-03-01T11:34:23;19.40;;;17.50;;
1306;SDS011;646;48.696;9.114;2023-03-01T11:36:59;17.87;;;16.13;;
1306;SDS011;646;48.696;9.114;2023-03-01T11:39:31;19.83;;;17.93;;
1306;SDS011;646;48.696;9.114;2023-03-01T11:42:13;20.23;;;18.13;;
1306;SDS011;646;48.696;9.114;2023-03-01T11:44:43;20.03;;;17.93;;
1306;SDS011;646;48.696;9.114;2023-03-01T11:52:41;19.43;;;17.33;;
1306;SDS011;646;48.696;9.114;2023-03-01T12:01:04;18.20;;;16.30;;
1306;SDS011;646;48.696;9.114;2023-03-01T12:15:11;18.50;;;16.60;;
1306;SDS011;646;48.696;9.114;2023-03-01T12:17:57;18.47;;;16.60;;
1306;SDS011;646;48.696;9.114;2023-03-01T12:26:53;19.13;;;17.23;;
1306;SDS011;646;48.696;9.114;2023-03-01T12:32:28;17.20;;;15.40;;
1306;SDS011;646;48.696;9.114;2023-03-01T12:35:12;17.83;;;16.03;;
1306;SDS011;646;48.696;9.114;2023-03-01T12:37:50;18.27;;;16.07;;
1306;SDS011;646;48.696;9.114;2023-03-01T12:43:57;17.80;;;16.10;;
1306;SDS011;646;48.696;9.114;2023-03-01T12:46:38;16.90;;;15.20;;
1306;SDS011;646;48.696;9.114;2023-03-01T12:49:08;16.43;;;14.83;;
1306;SDS011;646;48.696;9.114;2023-03-01T12:51:36;18.50;;;15.57;;
1306;SDS011;646;48.696;9.114;2023-03-01T12:54:48;16.80;;;15.00;;
1306;SDS011;646;48.696;9.114;2023-03-01T12:56:53;20.50;;;18.40;;
1306;SDS011;646;48.696;9.114;2023-03-01T13:02:09;16.67;;;14.87;;
1306;SDS011;646;48.696;9.114;2023-03-01T13:07:47;16.53;;;14.87;;
1306;SDS011;646;48.696;9.114;2023-03-01T13:10:43;18.97;;;17.10;;
1306;SDS011;646;48.696;9.114;2023-03-01T13:13:23;17.20;;;15.60;;
1306;SDS011;646;48.696;9.114;2023-03-01T13:15:51;23.60;;;20.23;;
1306;SDS011;646;48.696;9.114;2023-03-01T13:20:51;17.50;;;15.80;;
1306;SDS011;646;48.696;9.114;2023-03-01T13:28:41;16.63;;;14.93;;
1306;SDS011;646;48.696;9.114;2023-03-01T13:33:54;16.03;;;14.40;;
1306;SDS011;646;48.696;9.114;2023-03-01T13:44:48;15.73;;;14.00;;
1306;SDS011;646;48.696;9.114;2023-03-01T13:52:40;16.10;;;13.80;;
1306;SDS011;646;48.696;9.114;2023-03-01T13:57:58;14.50;;;12.90;;
1306;SDS011;646;48.696;9.114;2023-03-01T14:00:27;14.07;;;12.67;;
1306;SDS011;646;48.696;9.114;2023-03-01T14:05:44;14.67;;;13.17;;
1306;SDS011;646;48.696;9.114;2023-03-01T14:08:34;15.47;;;13.87;;
1306;SDS011;646;48.696;9.114;2023-03-01T14:11:09;16.40;;;14.80;;
1306;SDS011;646;48.696;9.114;2023-03-01T14:14:10;18.83;;;17.03;;
1306;SDS011;646;48.696;9.114;2023-03-01T14:20:22;17.43;;;15.53;;
1306;SDS011;646;48.696;9.114;2023-03-01T14:22:52;18.43;;;16.27;;
1306;SDS011;646;48.696;9.114;2023-03-01T14:27:56;17.57;;;15.77;;
1306;SDS011;646;48.696;9.114;2023-03-01T14:30:25;19.33;;;16.37;;
1306;SDS011;646;48.696;9.114;2023-03-01T14:32:57;18.27;;;16.00;;
1306;SDS011;646;48.696;9.114;2023-03-01T14:35:26;19.10;;;16.90;;
1306;SDS011;646;48.696;9.114;2023-03-01T14:37:53;18.73;;;16.93;;
1306;SDS011;646;48.696;9.114;2023-03-01T14:40:23;20.80;;;18.70;;
1306;SDS011;646;48.696;9.114;2023-03-01T14:43:00;18.10;;;16.20;;
1306;SDS011;646;48.696;9.114;2023-03-01T14:45:33;17.27;;;15.47;;
1306;SDS011;646;48.696;9.114;2023-03-01T14:47:59;18.30;;;16.27;;
1306;SDS011;646;48.696;9.114;2023-03-01T14:50:28;18.97;;;16.10;;
1306;SDS011;646;48.696;9.114;2023-03-01T14:53:05;17.90;;;15.80;;
1306;SDS011;646;48.696;9.114;2023-03-01T14:55:38;19.43;;;17.07;;
1306;SDS011;646;48.696;9.114;2023-03-01T14:58:10;17.37;;;15.57;;
1306;SDS011;646;48.696;9.114;2023-03-01T15:00:38;19.20;;;17.20;;
1306;SDS011;646;48.696;9.114;2023-03-01T15:03:07;19.20;;;17.00;;
1306;SDS011;646;48.696;9.114;2023-03-01T15:05:38;18.67;;;16.67;;
1306;SDS011;646;48.696;9.114;2023-03-01T15:08:05;18.50;;;16.23;;
1306;SDS011;646;48.696;9.114;2023-03-01T15:10:31;23.93;;;21.53;;
1306;SDS011;646;48.696;9.114;2023-03-01T15:15:38;19.23;;;17.03;;
1306;SDS011;646;48.696;9.114;2023-03-01T15:18:21;22.40;;;19.57;;
1306;SDS011;646;48.696;9.114;2023-03-01T15:20:51;17.93;;;15.13;;
1306;SDS011;646;48.696;9.114;2023-03-01T15:23:21;19.60;;;17.20;;
1306;SDS011;646;48.696;9.114;2023-03-01T15:25:50;20.27;;;17.97;;
1306;SDS011;646;48.696;9.114;2023-03-01T15:28:21;20.20;;;16.70;;
1306;SDS011;646;48.696;9.114;2023-03-01T15:31:00;18.83;;;14.67;;
1306;SDS011;646;48.696;9.114;2023-03-01T15:33:37;18.60;;;14.10;;
1306;SDS011;646;48.696;9.114;2023-03-01T15:36:29;17.83;;;14.57;;
1306;SDS011;646;48.696;9.114;2023-03-01T15:38:55;18.23;;;14.45;;
1306;SDS011;646;48.696;9.114;2023-03-01T15:41:27;21.20;;;15.50;;
1306;SDS011;646;48.696;9.114;2023-03-01T15:44:00;18.55;;;15.00;;
1306;SDS011;646;48.696;9.114;2023-03-01T15:46:39;21.27;;;16.20;;
1306;SDS011;646;48.696;9.114;2023-03-01T15:49:25;18.48;;;15.15;;
1306;SDS011;646;48.696;9.114;2023-03-01T15:52:12;18.02;;;16.15;;
1306;SDS011;646;48.696;9.114;2023-03-01T15:54:54;20.00;;;14.80;;
1306;SDS011;646;48.696;9.114;2023-03-01T15:57:24;18.13;;;13.73;;
1306;SDS011;646;48.696;9.114;2023-03-01T15:59:50;19.80;;;14.10;;
1306;SDS011;646;48.696;9.114;2023-03-01T16:02:15;20.13;;;14.90;;
1306;SDS011;646;48.696;9.114;2023-03-01T16:04:41;20.10;;;14.90;;
1306;SDS011;646;48.696;9.114;2023-03-01T16:07:08;21.97;;;14.70;;
1306;SDS011;646;48.696;9.114;2023-03-01T16:09:34;26.13;;;16.35;;
1306;SDS011;646;48.696;9.114;2023-03-01T16:12:00;22.67;;;14.50;;
1306;SDS011;646;48.696;9.114;2023-03-01T16:14:26;19.93;;;14.87;;
1306;SDS011;646;48.696;9.114;2023-03-01T16:16:52;17.10;;;14.00;;
1306;SDS011;646;48.696;9.114;2023-03-01T16:19:18;17.80;;;14.97;;
1306;SDS011;646;48.696;9.114;2023-03-01T16:21:43;19.13;;;14.13;;
1306;SDS011;646;48.696;9.114;2023-03-01T16:24:11;19.48;;;13.32;;
1306;SDS011;646;48.696;9.114;2023-03-01T16:26:37;15.93;;;12.57;;
1306;SDS011;646;48.696;9.114;2023-03-01T16:29:03;18.50;;;12.90;;
1306;SDS011;646;48.696;9.114;2023-03-01T16:31:29;16.48;;;13.13;;
1306;SDS011;646;48.696;9.114;2023-03-01T16:33:56;16.63;;;12.80;;
1306;SDS011;646;48.696;9.114;2023-03-01T16:36:22;20.85;;;14.55;;
1306;SDS011;646;48.696;9.114;2023-03-01T16:38:50;17.33;;;13.60;;
1306;SDS011;646;48.696;9.114;2023-03-01T16:41:17;20.98;;;12.48;;
1306;SDS011;646;48.696;9.114;2023-03-01T16:43:44;15.50;;;13.23;;
1306;SDS011;646;48.696;9.114;2023-03-01T16:46:15;16.45;;;12.77;;
1306;SDS011;646;48.696;9.114;2023-03-01T16:48:43;17.52;;;13.15;;
1306;SDS011;646;48.696;9.114;2023-03-01T16:51:09;16.13;;;12.60;;
1306;SDS011;646;48.696;9.114;2023-03-01T16:53:35;17.70;;;13.60;;
1306;SDS011;646;48.696;9.114;2023-03-01T16:56:02;18.35;;;13.02;;
1306;SDS011;646;48.696;9.114;2023-03-01T16:58:29;16.85;;;13.57;;
1306;SDS011;646;48.696;9.114;2023-03-01T17:00:55;18.20;;;13.50;;